Time;durP1;ratioP1;P1;durP2;ratioP2;P2;SDS_P1;SDS_P2;PMS_P1;PMS_P2;Temp;Humidity;BMP_temperature;BMP_pressure;BME280_temperature;BME280_humidity;BME280_pressure;Samples;Min_cycle;Max_cycle;Signal;HPM_P1;HPM_P2
2021/03/24 00:00:50;;;;;;;25.63;14.93;;;;;;;2.98;89.86;101285.19;5050528;28;20713;-73
2021/03/24 00:03:16;;;;;;;17.33;12.27;;;;;;;2.97;89.81;101289.78;5050225;28;20175;-73
2021/03/24 00:05:44;;;;;;;14.00;11.47;;;;;;;2.86;89.89;101281.72;5050347;28;20278;-72
2021/03/24 00:08:10;;;;;;;24.23;12.67;;;;;;;2.82;89.92;101281.38;5049792;28;20167;-73
2021/03/24 00:10:37;;;;;;;13.23;11.83;;;;;;;2.76;89.97;101282.34;5050336;28;20193;-73
2021/03/24 00:13:04;;;;;;;19.43;14.13;;;;;;;2.72;90.44;101283.03;5050309;28;20167;-72
2021/03/24 00:15:29;;;;;;;15.63;14.00;;;;;;;2.68;90.68;101280.00;5050368;28;20191;-72
2021/03/24 00:17:56;;;;;;;15.33;13.87;;;;;;;2.66;91.13;101282.94;5049663;28;20167;-72
2021/03/24 00:20:25;;;;;;;25.70;14.30;;;;;;;2.62;91.55;101291.75;5050812;28;20175;-73
2021/03/24 00:22:50;;;;;;;19.20;14.10;;;;;;;2.59;91.41;101290.34;5050163;28;20179;-72
2021/03/24 00:25:17;;;;;;;23.97;14.50;;;;;;;2.58;91.51;101290.56;5032329;28;20238;-73
2021/03/24 00:27:43;;;;;;;20.27;15.07;;;;;;;2.58;91.49;101298.66;5049721;28;20259;-72
2021/03/24 00:30:10;;;;;;;18.90;13.73;;;;;;;2.56;91.39;101293.50;5049916;28;20187;-72
2021/03/24 00:32:36;;;;;;;25.70;15.47;;;;;;;2.58;91.58;101287.88;5060095;28;20174;-73
2021/03/24 00:35:01;;;;;;;22.00;15.97;;;;;;;2.58;91.37;101288.69;5067042;28;20577;-72
2021/03/24 00:37:26;;;;;;;24.13;15.13;;;;;;;2.60;91.52;101289.31;5069920;28;20574;-72
2021/03/24 00:39:52;;;;;;;23.07;16.30;;;;;;;2.68;91.08;101294.31;5063163;28;20214;-73
2021/03/24 00:42:17;;;;;;;21.20;17.17;;;;;;;2.60;90.91;101283.91;5050157;28;20175;-73
2021/03/24 00:44:42;;;;;;;19.77;14.37;;;;;;;2.66;90.49;101284.81;5050118;28;20175;-72
2021/03/24 00:47:08;;;;;;;19.77;14.67;;;;;;;2.61;90.18;101293.63;5049374;28;20190;-73
2021/03/24 00:49:33;;;;;;;25.53;14.67;;;;;;;2.62;89.88;101291.75;5050134;28;20228;-73
2021/03/24 00:51:59;;;;;;;23.07;13.10;;;;;;;2.45;90.02;101283.56;5049953;28;20250;-73
2021/03/24 00:54:24;;;;;;;19.50;13.63;;;;;;;2.46;90.19;101277.13;5052303;28;20168;-73
2021/03/24 00:56:50;;;;;;;17.17;12.77;;;;;;;2.45;90.54;101278.16;5053330;28;20207;-73
2021/03/24 00:59:15;;;;;;;16.60;13.40;;;;;;;2.58;91.19;101275.22;5053551;28;20228;-72
2021/03/24 01:01:42;;;;;;;18.07;13.77;;;;;;;2.75;91.03;101277.16;5053458;28;20175;-73
2021/03/24 01:04:08;;;;;;;22.10;14.00;;;;;;;2.89;90.69;101275.81;5053695;28;20190;-73
2021/03/24 01:06:36;;;;;;;14.93;13.33;;;;;;;2.93;89.53;101277.00;5053318;28;20254;-73
2021/03/24 01:09:03;;;;;;;14.83;12.00;;;;;;;3.03;89.17;101282.56;5053542;28;20176;-73
2021/03/24 01:11:31;;;;;;;15.80;12.73;;;;;;;3.01;87.81;101278.50;5053537;28;20171;-73
2021/03/24 01:13:56;;;;;;;17.60;14.07;;;;;;;2.98;87.39;101280.63;5053390;28;20770;-73
2021/03/24 01:16:21;;;;;;;18.10;12.40;;;;;;;2.88;86.74;101280.41;5052853;28;20294;-73
2021/03/24 01:18:47;;;;;;;17.60;12.07;;;;;;;2.82;86.54;101270.59;5053349;28;20264;-73
2021/03/24 01:21:12;;;;;;;13.80;11.23;;;;;;;2.72;86.62;101278.47;5053224;28;20171;-72
2021/03/24 01:23:37;;;;;;;19.67;12.73;;;;;;;2.61;86.54;101276.63;5053229;28;20521;-73
2021/03/24 01:26:03;;;;;;;17.27;12.60;;;;;;;2.44;86.77;101276.53;5052947;28;20182;-73
2021/03/24 01:28:29;;;;;;;14.63;13.07;;;;;;;2.36;87.44;101272.31;5052754;28;20192;-72
2021/03/24 01:31:00;;;;;;;20.70;13.63;;;;;;;2.32;88.04;101276.56;5052984;28;20710;-72
2021/03/24 01:33:26;;;;;;;29.70;11.60;;;;;;;2.33;88.17;101280.91;5053128;28;20244;-73
2021/03/24 01:35:52;;;;;;;18.97;14.23;;;;;;;2.30;87.96;101278.66;5052847;28;20228;-73
2021/03/24 01:38:18;;;;;;;26.83;14.13;;;;;;;2.30;88.18;101277.81;5053056;28;20233;-73
2021/03/24 01:40:47;;;;;;;28.53;14.60;;;;;;;2.18;87.59;101277.84;5052884;28;20168;-72
2021/03/24 01:43:21;;;;;;;15.50;12.50;;;;;;;2.09;87.93;101279.25;5052788;28;20171;-72
2021/03/24 01:46:33;;;;;;;14.80;13.30;;;;;;;1.99;88.74;101273.63;5052755;28;20430;-73
2021/03/24 01:49:01;;;;;;;17.83;12.10;;;;;;;1.91;89.27;101263.22;4990824;28;20185;-72
2021/03/24 01:52:01;;;;;;;18.90;13.57;;;;;;;1.78;89.59;101264.25;4990703;28;20542;-73
2021/03/24 01:54:32;;;;;;;18.67;11.90;;;;;;;1.64;90.51;101265.53;5038363;28;20446;-73
2021/03/24 01:57:03;;;;;;;19.37;14.00;;;;;;;1.67;91.14;101254.28;5052161;28;20961;-73
2021/03/24 01:59:28;;;;;;;21.63;14.87;;;;;;;1.72;91.51;101262.47;5052614;28;20406;-75
2021/03/24 02:01:55;;;;;;;20.60;15.40;;;;;;;1.77;91.94;101268.00;5052408;28;20778;-73
2021/03/24 02:04:21;;;;;;;22.53;14.37;;;;;;;1.79;91.85;101263.19;5034478;28;20167;-73
2021/03/24 02:06:52;;;;;;;23.77;13.53;;;;;;;1.82;92.01;101268.09;5051111;28;20224;-73
2021/03/24 02:09:47;;;;;;;20.47;14.27;;;;;;;1.90;92.35;101264.25;5070574;28;20316;-73
2021/03/24 02:12:19;;;;;;;18.53;13.60;;;;;;;1.98;92.72;101266.59;5050188;28;20195;-73
2021/03/24 02:15:13;;;;;;;23.77;12.57;;;;;;;2.00;93.14;101262.59;5072262;28;20419;-73
2021/03/24 02:17:42;;;;;;;28.33;15.20;;;;;;;1.97;93.44;101267.66;5066773;28;20281;-73
2021/03/24 02:20:20;;;;;;;22.67;14.20;;;;;;;1.90;94.23;101264.25;5072023;28;20417;-73
2021/03/24 02:22:56;;;;;;;22.33;14.00;;;;;;;1.79;94.94;101261.31;5072073;28;20170;-73
2021/03/24 02:25:27;;;;;;;30.10;16.47;;;;;;;1.89;95.18;101263.44;5072311;28;20186;-73
2021/03/24 02:27:56;;;;;;;21.97;16.90;;;;;;;1.98;94.91;101264.72;5071650;28;20178;-73
2021/03/24 02:30:31;;;;;;;34.83;18.87;;;;;;;2.15;95.21;101258.63;5071866;28;20190;-73
2021/03/24 02:33:02;;;;;;;21.97;14.37;;;;;;;2.66;95.56;101252.44;5071852;28;20178;-73
2021/03/24 02:35:31;;;;;;;13.73;9.90;;;;;;;3.16;95.89;101260.69;5071871;28;20206;-73
2021/03/24 02:37:59;;;;;;;22.27;16.47;;;;;;;3.61;95.86;101262.56;5071363;28;20953;-73
2021/03/24 02:40:26;;;;;;;31.97;20.40;;;;;;;3.82;95.15;101269.13;5071794;28;20258;-72
2021/03/24 02:42:53;;;;;;;25.67;17.87;;;;;;;4.02;94.59;101253.22;5071672;28;20175;-73
2021/03/24 02:45:24;;;;;;;14.60;12.23;;;;;;;4.14;93.45;101262.03;5072127;28;20198;-72
2021/03/24 02:47:51;;;;;;;11.80;9.17;;;;;;;4.29;93.00;101250.63;5070691;28;20175;-73
2021/03/24 02:50:18;;;;;;;14.10;12.30;;;;;;;4.41;92.06;101254.03;5071688;28;20174;-72
2021/03/24 02:52:43;;;;;;;29.17;17.70;;;;;;;4.46;91.13;101248.69;5071762;28;20635;-73
2021/03/24 02:55:11;;;;;;;8.67;7.63;;;;;;;4.48;90.79;101241.16;5071535;28;20261;-72
2021/03/24 02:57:37;;;;;;;31.20;18.43;;;;;;;4.50;90.83;101243.63;5071118;28;20178;-72
2021/03/24 03:00:07;;;;;;;8.47;7.03;;;;;;;4.53;90.59;101236.88;5071419;28;20175;-73
2021/03/24 03:02:37;;;;;;;4.97;4.50;;;;;;;4.57;90.07;101238.00;5071388;28;20296;-72
2021/03/24 03:05:07;;;;;;;10.53;8.63;;;;;;;4.56;89.68;101242.59;5071350;28;20174;-72
2021/03/24 03:07:44;;;;;;;14.90;12.33;;;;;;;4.59;89.82;101242.09;5070949;28;20174;-72
2021/03/24 03:10:17;;;;;;;10.70;7.90;;;;;;;4.59;89.61;101247.50;5071188;28;20626;-72
2021/03/24 03:13:01;;;;;;;35.67;12.53;;;;;;;4.59;89.72;101244.78;5071261;28;20201;-72
2021/03/24 03:16:07;;;;;;;17.47;12.23;;;;;;;4.58;89.43;101240.44;5071129;28;20202;-72
2021/03/24 03:18:44;;;;;;;16.87;8.87;;;;;;;4.63;89.19;101240.53;5069690;28;20563;-72
2021/03/24 03:21:17;;;;;;;20.20;10.53;;;;;;;4.64;89.41;101238.66;5071013;28;20210;-73
2021/03/24 03:23:44;;;;;;;24.43;6.80;;;;;;;4.65;89.26;101246.50;5071083;28;20490;-72
2021/03/24 03:26:13;;;;;;;24.33;10.47;;;;;;;4.69;89.29;101244.09;5070811;28;20258;-72
2021/03/24 03:28:43;;;;;;;22.30;13.53;;;;;;;4.71;89.35;101245.47;5070854;28;20229;-73
2021/03/24 03:31:15;;;;;;;6.53;6.07;;;;;;;4.71;89.20;101244.66;5070847;28;20189;-72
2021/03/24 03:33:44;;;;;;;8.67;7.53;;;;;;;4.71;88.83;101245.47;5070877;28;20728;-73
2021/03/24 03:36:12;;;;;;;11.80;5.90;;;;;;;4.72;88.93;101244.41;5070621;28;20206;-73
2021/03/24 03:38:38;;;;;;;11.37;10.27;;;;;;;4.72;88.96;101249.81;5070283;28;20170;-72
2021/03/24 03:41:07;;;;;;;5.50;5.00;;;;;;;4.73;88.66;101237.94;5070515;28;20170;-72
2021/03/24 03:43:34;;;;;;;9.57;5.03;;;;;;;4.75;88.56;101237.66;5070959;28;20170;-72
2021/03/24 03:46:02;;;;;;;15.77;11.00;;;;;;;4.74;88.69;101234.16;5070704;28;20178;-72
2021/03/24 03:48:27;;;;;;;5.80;5.37;;;;;;;4.76;88.00;101233.88;5070356;28;20209;-72
2021/03/24 03:51:01;;;;;;;19.50;10.70;;;;;;;4.77;88.09;101238.22;5070902;28;20198;-72
2021/03/24 03:53:39;;;;;;;17.03;12.50;;;;;;;4.76;88.13;101232.00;5071113;28;20178;-72
2021/03/24 03:56:19;;;;;;;4.50;4.30;;;;;;;4.76;87.96;101229.28;5065227;28;20202;-72
2021/03/24 03:58:53;;;;;;;13.33;6.63;;;;;;;4.77;87.78;101230.13;5050618;28;20167;-72
2021/03/24 04:01:23;;;;;;;12.63;11.23;;;;;;;4.76;87.50;101226.59;5050692;28;20634;-72
2021/03/24 04:03:59;;;;;;;5.20;4.80;;;;;;;4.77;87.46;101228.25;5050540;28;20183;-72
2021/03/24 04:06:34;;;;;;;9.10;8.33;;;;;;;4.76;87.82;101220.34;5050311;28;20224;-72
2021/03/24 04:09:00;;;;;;;7.57;4.43;;;;;;;4.73;87.21;101221.69;5050761;28;20214;-72
2021/03/24 04:11:30;;;;;;;10.53;9.53;;;;;;;4.72;87.57;101228.19;5050639;28;20725;-72
2021/03/24 04:13:57;;;;;;;13.87;12.50;;;;;;;4.73;87.33;101226.28;5050722;28;20183;-72
2021/03/24 04:16:25;;;;;;;7.97;7.40;;;;;;;4.71;87.34;101229.25;5050300;28;20207;-72
2021/03/24 04:19:03;;;;;;;18.90;12.43;;;;;;;4.72;87.37;101224.66;5050570;28;20692;-72
2021/03/24 04:21:31;;;;;;;20.07;11.83;;;;;;;4.73;86.93;101226.28;5050588;28;20465;-72
2021/03/24 04:24:06;;;;;;;7.23;6.33;;;;;;;4.73;86.90;101218.97;5050521;28;20175;-72
2021/03/24 04:26:36;;;;;;;8.90;4.63;;;;;;;4.72;86.65;101225.47;5032385;28;20198;-72
2021/03/24 04:29:07;;;;;;;5.90;5.50;;;;;;;4.72;86.48;101225.47;5052143;28;20266;-72
2021/03/24 04:31:37;;;;;;;6.70;6.17;;;;;;;4.72;86.49;101233.59;5054495;28;20167;-72
2021/03/24 04:34:03;;;;;;;7.37;6.37;;;;;;;4.69;86.45;101239.50;5054202;28;20175;-73
2021/03/24 04:36:42;;;;;;;18.83;16.40;;;;;;;4.71;86.51;101236.56;5053841;28;20236;-72
2021/03/24 04:39:37;;;;;;;25.20;17.23;;;;;;;4.69;86.15;101241.41;5054398;28;20163;-72
2021/03/24 04:42:09;;;;;;;6.20;5.63;;;;;;;4.63;86.23;101235.13;5052386;28;20187;-72
2021/03/24 04:44:38;;;;;;;8.20;7.70;;;;;;;4.57;86.14;101243.41;5054115;28;20182;-72
2021/03/24 04:47:13;;;;;;;35.47;16.50;;;;;;;4.50;86.39;101238.19;5053649;28;20190;-72
2021/03/24 04:49:46;;;;;;;12.57;7.80;;;;;;;4.46;85.94;101242.47;5054224;28;20167;-72
2021/03/24 04:52:11;;;;;;;5.47;2.37;;;;;;;4.42;85.70;101235.91;5053998;28;20160;-72
2021/03/24 04:54:39;;;;;;;13.30;8.73;;;;;;;4.42;85.62;101238.63;5054339;28;20198;-72
2021/03/24 04:57:08;;;;;;;7.80;7.10;;;;;;;4.44;85.39;101239.19;5053249;28;20210;-73
2021/03/24 04:59:40;;;;;;;6.10;4.20;;;;;;;4.41;85.59;101245.09;5035790;28;20202;-72
2021/03/24 05:02:20;;;;;;;8.50;6.23;;;;;;;4.38;85.64;101246.44;5054010;28;20183;-72
2021/03/24 05:04:50;;;;;;;10.77;9.97;;;;;;;4.36;85.80;101245.06;5053782;28;20163;-72
2021/03/24 05:07:24;;;;;;;8.73;6.20;;;;;;;4.33;85.35;101240.94;5053268;28;20605;-72
2021/03/24 05:09:49;;;;;;;9.73;6.63;;;;;;;4.31;85.25;101231.44;5053686;28;20575;-73
2021/03/24 05:12:49;;;;;;;6.37;5.83;;;;;;;4.27;85.39;101236.53;5053632;28;20179;-72
2021/03/24 05:15:26;;;;;;;6.60;5.30;;;;;;;4.23;85.56;101232.72;5053655;28;20179;-72
2021/03/24 05:17:54;;;;;;;7.73;3.47;;;;;;;4.20;85.44;101233.22;5053401;28;20258;-72
2021/03/24 05:20:27;;;;;;;19.70;13.57;;;;;;;4.20;85.04;101233.22;5053913;28;20195;-72
2021/03/24 05:22:53;;;;;;;20.93;13.63;;;;;;;4.18;85.26;101230.72;5053739;28;20179;-73
2021/03/24 05:25:24;;;;;;;14.10;9.70;;;;;;;4.15;85.30;101233.13;5053594;28;20658;-72
2021/03/24 05:27:58;;;;;;;14.23;10.37;;;;;;;4.13;85.32;101221.72;5053048;28;20592;-72
2021/03/24 05:30:28;;;;;;;25.90;15.83;;;;;;;4.10;85.31;101233.88;5035387;28;20191;-72
2021/03/24 05:33:04;;;;;;;19.37;12.50;;;;;;;4.09;85.35;101232.25;5053650;28;20171;-73
2021/03/24 05:35:32;;;;;;;22.03;14.07;;;;;;;4.09;85.63;101234.94;5053201;28;20309;-72
2021/03/24 05:38:06;;;;;;;24.90;16.03;;;;;;;4.09;85.10;101232.25;5052827;28;20183;-72
2021/03/24 05:40:57;;;;;;;15.77;10.07;;;;;;;4.08;84.89;101235.19;5052225;28;20175;-73
2021/03/24 05:43:34;;;;;;;21.17;13.07;;;;;;;4.11;84.80;101226.59;5053094;28;20179;-73
2021/03/24 05:46:24;;;;;;;11.70;10.50;;;;;;;4.09;84.57;101224.13;5052862;28;20261;-72
2021/03/24 05:49:16;;;;;;;28.80;13.97;;;;;;;4.06;84.62;101221.94;5053173;28;20225;-72
2021/03/24 05:51:50;;;;;;;15.03;10.13;;;;;;;4.07;84.64;101223.56;5054131;28;20233;-72
2021/03/24 05:54:42;;;;;;;17.77;12.80;;;;;;;4.07;84.19;101222.75;5064183;28;20167;-72
2021/03/24 05:57:26;;;;;;;3.13;2.93;;;;;;;4.10;84.11;101222.25;5073872;28;20252;-72
2021/03/24 06:00:23;;;;;;;22.03;13.37;;;;;;;4.16;84.15;101216.63;5073043;28;20222;-72
2021/03/24 06:03:05;;;;;;;5.90;3.77;;;;;;;4.18;83.65;101219.09;5072559;28;20225;-72
2021/03/24 06:06:07;;;;;;;11.77;9.30;;;;;;;4.20;83.91;101216.97;5072439;28;20189;-72
2021/03/24 06:08:53;;;;;;;22.37;8.87;;;;;;;4.23;83.35;101218.38;5072367;28;20279;-72
2021/03/24 06:11:27;;;;;;;12.87;7.37;;;;;;;4.27;83.37;101217.59;5072444;28;20166;-72
2021/03/24 06:14:40;;;;;;;16.70;11.70;;;;;;;4.31;82.69;101226.03;5072280;28;20294;-72
2021/03/24 06:17:22;;;;;;;19.43;13.03;;;;;;;4.32;82.86;101214.13;5071742;28;20210;-72
2021/03/24 06:20:08;;;;;;;14.27;10.87;;;;;;;4.37;82.79;101225.03;5072199;28;20555;-72
2021/03/24 06:22:53;;;;;;;16.30;10.07;;;;;;;4.40;83.01;101222.66;5072198;28;20170;-72
2021/03/24 06:25:34;;;;;;;14.10;11.17;;;;;;;4.42;83.14;101227.81;5072078;28;20253;-72
2021/03/24 06:28:30;;;;;;;5.27;4.87;;;;;;;4.45;82.61;101217.28;5071536;28;20821;-72
2021/03/24 06:31:07;;;;;;;14.33;9.87;;;;;;;4.49;82.44;101225.75;5072040;28;20661;-72
2021/03/24 06:33:51;;;;;;;4.47;4.17;;;;;;;4.54;82.51;101222.28;5072240;28;20171;-72
2021/03/24 06:36:16;;;;;;;10.10;9.10;;;;;;;4.57;81.90;101224.47;5071416;28;20279;-72
2021/03/24 06:39:03;;;;;;;11.03;8.00;;;;;;;4.59;82.42;101231.25;5071651;28;20194;-72
2021/03/24 06:41:55;;;;;;;15.27;8.83;;;;;;;4.66;81.94;101225.69;5054023;28;20182;-72
2021/03/24 06:44:31;;;;;;;14.53;6.33;;;;;;;4.71;81.34;101223.00;5071720;28;20249;-72
2021/03/24 06:47:09;;;;;;;9.83;8.30;;;;;;;4.74;81.73;101219.78;5070823;28;20186;-73
2021/03/24 06:49:34;;;;;;;19.23;9.17;;;;;;;4.77;81.29;101222.84;5071427;28;20179;-72
2021/03/24 06:52:18;;;;;;;16.03;8.97;;;;;;;4.82;81.76;101227.47;5071344;28;20170;-72
2021/03/24 06:55:02;;;;;;;19.20;8.40;;;;;;;4.89;81.59;101235.41;5071561;28;20540;-72
2021/03/24 06:58:05;;;;;;;10.57;9.17;;;;;;;4.95;81.18;101227.09;5070986;28;20251;-72
2021/03/24 07:00:46;;;;;;;3.83;3.57;;;;;;;5.04;80.14;101225.53;5071225;28;20539;-73
2021/03/24 07:03:30;;;;;;;14.97;12.57;;;;;;;5.15;80.27;101228.34;5071313;28;20166;-72
2021/03/24 07:05:58;;;;;;;9.57;8.37;;;;;;;5.25;79.79;101226.56;5071308;28;20167;-73
2021/03/24 07:08:48;;;;;;;7.83;7.23;;;;;;;5.34;79.64;101226.91;5070912;28;20186;-72
2021/03/24 07:11:26;;;;;;;5.97;4.10;;;;;;;5.44;79.21;101231.59;5071263;28;20659;-73
2021/03/24 07:14:13;;;;;;;3.53;3.30;;;;;;;5.51;78.76;101232.22;5071110;28;20575;-73
2021/03/24 07:17:07;;;;;;;22.03;7.37;;;;;;;5.58;78.41;101239.06;5070439;28;20697;-75
2021/03/24 07:20:11;;;;;;;11.13;8.37;;;;;;;5.67;78.31;101247.53;5070965;28;20250;-74
2021/03/24 07:23:06;;;;;;;5.73;5.27;;;;;;;5.70;77.63;101241.59;5052998;28;20650;-72
2021/03/24 07:25:45;;;;;;;12.07;7.43;;;;;;;5.75;77.59;101238.09;5052927;28;20186;-72
2021/03/24 07:28:20;;;;;;;11.53;8.30;;;;;;;5.85;78.02;101238.19;5070349;28;20170;-73
2021/03/24 07:31:08;;;;;;;8.50;7.87;;;;;;;5.88;77.26;101243.06;5070975;28;20163;-72
2021/03/24 07:33:59;;;;;;;4.27;4.07;;;;;;;5.95;77.02;101236.41;5070775;28;20257;-73
2021/03/24 07:36:50;;;;;;;15.97;12.50;;;;;;;6.00;76.90;101232.06;5070327;28;20202;-72
2021/03/24 07:39:43;;;;;;;5.23;4.60;;;;;;;6.09;76.61;101228.63;5070836;28;20216;-73
2021/03/24 07:42:33;;;;;;;8.40;6.80;;;;;;;6.19;76.03;101244.94;5070558;28;20206;-72
2021/03/24 07:45:07;;;;;;;12.43;8.57;;;;;;;6.22;75.49;101241.72;5070709;28;20185;-73
2021/03/24 07:48:17;;;;;;;25.70;8.53;;;;;;;6.34;76.23;101246.09;5050162;28;20178;-72
2021/03/24 07:51:22;;;;;;;25.70;12.30;;;;;;;6.44;75.09;101249.69;5008444;28;20184;-73
2021/03/24 07:54:11;;;;;;;24.03;10.23;;;;;;;6.57;74.80;101242.97;5050573;28;20178;-72
2021/03/24 07:56:52;;;;;;;7.03;6.33;;;;;;;6.73;74.39;101243.84;5050232;28;20317;-72
2021/03/24 07:59:50;;;;;;;9.50;7.87;;;;;;;6.76;73.89;101246.03;5050759;28;20258;-76
2021/03/24 08:02:45;;;;;;;10.07;9.03;;;;;;;6.93;73.80;101246.63;5050453;28;20175;-77
2021/03/24 08:05:24;;;;;;;10.30;7.87;;;;;;;6.95;73.33;101241.75;5057260;28;20189;-79
2021/03/24 08:08:11;;;;;;;19.30;11.43;;;;;;;7.08;73.87;101248.56;5056821;28;20194;-72
2021/03/24 08:11:13;;;;;;;12.73;6.93;;;;;;;7.24;73.60;101244.81;5057127;28;20218;-73
2021/03/24 08:13:46;;;;;;;14.47;10.50;;;;;;;7.32;73.86;101240.72;5057016;28;20171;-73
2021/03/24 08:16:14;;;;;;;13.40;9.47;;;;;;;7.50;72.37;101245.63;5056840;28;20553;-73
2021/03/24 08:18:58;;;;;;;14.17;10.27;;;;;;;7.56;72.00;101246.47;5057043;28;20571;-73
2021/03/24 08:21:51;;;;;;;4.47;4.13;;;;;;;7.60;70.60;101242.94;5057070;28;20175;-72
2021/03/24 08:24:35;;;;;;;9.03;7.10;;;;;;;7.68;71.66;101244.31;5056902;28;20189;-73
2021/03/24 08:27:08;;;;;;;11.03;7.43;;;;;;;7.82;71.42;101242.66;5056240;28;20171;-72
2021/03/24 08:30:09;;;;;;;13.87;8.83;;;;;;;8.00;70.77;101242.09;5056591;28;20191;-72
2021/03/24 08:32:37;;;;;;;23.47;6.57;;;;;;;8.06;70.42;101242.91;5056641;28;20159;-72
2021/03/24 08:35:24;;;;;;;14.73;9.20;;;;;;;8.08;70.08;101238.00;5056711;28;20186;-72
2021/03/24 08:37:59;;;;;;;19.43;12.43;;;;;;;8.19;70.37;101234.16;5061949;28;20590;-73
2021/03/24 08:40:49;;;;;;;8.33;3.47;;;;;;;8.33;70.14;101240.66;5064144;28;20197;-73
2021/03/24 08:43:17;;;;;;;14.10;9.30;;;;;;;8.35;70.10;101249.38;5077058;28;20179;-72
2021/03/24 08:45:49;;;;;;;11.73;10.50;;;;;;;8.44;69.05;101237.94;5063487;28;20682;-72
2021/03/24 08:48:34;;;;;;;9.57;8.10;;;;;;;8.51;69.32;101236.53;5055898;28;20247;-72
2021/03/24 08:51:09;;;;;;;7.30;6.53;;;;;;;8.59;68.09;101241.44;5057086;28;20163;-72
2021/03/24 08:53:59;;;;;;;4.30;4.00;;;;;;;8.55;68.05;101236.81;5055543;28;20167;-73
2021/03/24 08:56:30;;;;;;;9.97;5.63;;;;;;;8.57;67.59;101237.34;5071921;28;20205;-73
2021/03/24 08:59:15;;;;;;;11.37;10.23;;;;;;;8.67;68.81;101237.28;5076425;28;20218;-72
2021/03/24 09:01:54;;;;;;;6.37;5.70;;;;;;;8.85;68.42;101233.16;5071156;28;20186;-73
2021/03/24 09:04:43;;;;;;;10.67;4.20;;;;;;;8.86;66.07;101238.31;5065306;28;20247;-73
2021/03/24 09:07:29;;;;;;;17.47;12.47;;;;;;;8.76;66.59;101224.72;5059658;28;20530;-73
2021/03/24 09:10:09;;;;;;;17.87;10.73;;;;;;;8.95;67.15;101225.72;5053666;28;20438;-72
2021/03/24 09:12:47;;;;;;;11.17;8.17;;;;;;;9.11;66.68;101220.16;5054490;28;20179;-73
2021/03/24 09:15:23;;;;;;;4.23;3.77;;;;;;;9.09;66.04;101219.63;5052321;28;20167;-72
2021/03/24 09:18:28;;;;;;;18.73;8.80;;;;;;;9.14;65.55;101216.91;5051459;28;20663;-72
2021/03/24 09:21:14;;;;;;;8.20;7.50;;;;;;;9.37;65.59;101218.91;5052074;28;20229;-72
2021/03/24 09:24:29;;;;;;;15.10;10.03;;;;;;;9.41;65.86;101217.25;5052656;28;20654;-73
2021/03/24 09:27:25;;;;;;;18.10;9.23;;;;;;;9.53;66.06;101211.41;5034640;28;20669;-72
2021/03/24 09:30:08;;;;;;;9.07;8.20;;;;;;;9.69;64.99;101214.81;5052384;28;20375;-72
2021/03/24 09:32:39;;;;;;;18.77;10.67;;;;;;;9.44;65.78;101221.31;5052825;28;20190;-72
2021/03/24 09:35:45;;;;;;;6.73;6.00;;;;;;;9.62;65.30;101217.06;5052634;28;20171;-73
2021/03/24 09:38:17;;;;;;;5.70;5.30;;;;;;;9.69;64.04;101212.94;5051788;28;20205;-73
2021/03/24 09:40:54;;;;;;;15.10;10.40;;;;;;;9.73;65.47;101215.91;5052426;28;20175;-72
2021/03/24 09:43:37;;;;;;;5.60;4.00;;;;;;;9.83;65.61;101222.06;5051186;28;20187;-73
2021/03/24 09:46:08;;;;;;;9.23;8.33;;;;;;;9.83;64.70;101213.88;5052086;28;20228;-72
2021/03/24 09:48:55;;;;;;;9.53;8.53;;;;;;;9.99;64.50;101214.56;5052571;28;20184;-72
2021/03/24 09:51:48;;;;;;;4.20;3.97;;;;;;;9.93;63.96;101212.97;5052179;28;20171;-72
2021/03/24 09:54:27;;;;;;;8.93;8.07;;;;;;;9.95;64.11;101223.59;5052268;28;20214;-72
2021/03/24 09:57:18;;;;;;;11.10;6.73;;;;;;;9.92;64.18;101210.53;5051479;28;20203;-72
2021/03/24 09:59:59;;;;;;;9.70;8.70;;;;;;;9.92;65.14;101213.25;5046042;28;20560;-73
2021/03/24 10:02:36;;;;;;;11.00;8.07;;;;;;;10.03;65.41;101203.88;5052524;28;20632;-74
2021/03/24 10:05:08;;;;;;;6.57;4.43;;;;;;;9.97;63.79;101208.53;5052565;28;20681;-73
2021/03/24 10:07:41;;;;;;;5.37;5.00;;;;;;;10.04;64.90;101200.03;5051699;28;20207;-73
2021/03/24 10:10:14;;;;;;;10.30;9.30;;;;;;;10.16;64.96;101207.84;5051031;28;20155;-73
2021/03/24 10:13:15;;;;;;;11.37;9.53;;;;;;;10.40;64.75;101201.28;5050668;28;20270;-75
2021/03/24 10:15:50;;;;;;;5.93;5.43;;;;;;;10.30;63.99;101204.16;5051970;28;20238;-71
2021/03/24 10:18:36;;;;;;;9.87;6.60;;;;;;;10.31;63.60;101202.22;5051365;28;20182;-71
2021/03/24 10:21:10;;;;;;;13.87;9.17;;;;;;;10.47;63.08;101200.94;5052046;28;20251;-72
2021/03/24 10:23:49;;;;;;;4.27;3.90;;;;;;;10.55;62.85;101199.47;5051877;28;20212;-72
2021/03/24 10:26:22;;;;;;;19.53;10.13;;;;;;;10.64;63.03;101195.78;5050736;28;20171;-71
2021/03/24 10:28:58;;;;;;;10.83;9.20;;;;;;;10.69;63.46;101193.00;5051618;28;20695;-71
2021/03/24 10:31:44;;;;;;;11.27;5.90;;;;;;;10.66;62.35;101192.75;5051905;28;20186;-71
2021/03/24 10:34:35;;;;;;;10.27;9.13;;;;;;;10.65;63.35;101181.03;5051714;28;20284;-71
2021/03/24 10:37:18;;;;;;;7.37;6.53;;;;;;;10.87;62.26;101179.66;5051331;28;20217;-71
2021/03/24 10:40:14;;;;;;;5.17;4.67;;;;;;;11.15;61.24;101184.16;5052067;28;20163;-71
2021/03/24 10:42:49;;;;;;;9.10;8.20;;;;;;;11.00;60.87;101182.47;5050361;28;20175;-71
2021/03/24 10:45:37;;;;;;;3.77;3.07;;;;;;;10.97;60.53;101174.03;5051749;28;20167;-71
2021/03/24 10:48:13;;;;;;;16.80;8.13;;;;;;;11.02;60.90;101174.78;5051208;28;20629;-71
2021/03/24 10:50:48;;;;;;;14.77;10.83;;;;;;;11.16;62.28;101176.75;5051739;28;20205;-71
2021/03/24 10:53:25;;;;;;;6.77;6.07;;;;;;;11.41;60.64;101172.78;5051778;28;20616;-71
2021/03/24 10:56:14;;;;;;;6.47;5.07;;;;;;;11.50;60.63;101169.06;5051508;28;20282;-71
2021/03/24 10:58:57;;;;;;;19.60;11.00;;;;;;;11.60;61.41;101176.31;5051512;28;20221;-71
2021/03/24 11:01:38;;;;;;;13.20;7.73;;;;;;;11.48;60.20;101174.03;5050313;28;20228;-71
2021/03/24 11:04:09;;;;;;;4.63;4.43;;;;;;;11.54;58.39;101170.09;5051625;28;20623;-71
2021/03/24 11:06:41;;;;;;;17.67;8.40;;;;;;;11.57;60.07;101165.94;5050854;28;20199;-71
2021/03/24 11:09:16;;;;;;;9.27;8.17;;;;;;;11.53;59.60;101159.44;5050117;28;20171;-71
2021/03/24 11:11:59;;;;;;;13.30;11.13;;;;;;;11.47;60.42;101156.00;5051570;28;20652;-71
2021/03/24 11:14:37;;;;;;;12.10;10.77;;;;;;;11.73;60.48;101155.56;5051486;28;20783;-71
2021/03/24 11:17:17;;;;;;;8.23;5.53;;;;;;;11.95;58.49;101147.50;5050395;28;20194;-71
2021/03/24 11:19:48;;;;;;;13.40;9.33;;;;;;;11.94;59.92;101156.81;5051074;28;20201;-70
2021/03/24 11:22:13;;;;;;;14.10;9.97;;;;;;;11.91;58.20;101143.75;5050964;28;20260;-72
2021/03/24 11:24:57;;;;;;;15.57;8.33;;;;;;;12.12;58.29;101146.88;5050985;28;20199;-70
2021/03/24 11:27:35;;;;;;;5.83;4.63;;;;;;;11.90;57.67;101136.66;5050508;28;20205;-71
2021/03/24 11:30:21;;;;;;;10.17;9.23;;;;;;;11.90;57.20;101139.38;5050794;28;20646;-71
2021/03/24 11:32:49;;;;;;;8.13;7.33;;;;;;;11.93;58.22;101137.97;5050976;28;20225;-70
2021/03/24 11:35:28;;;;;;;7.83;7.07;;;;;;;12.13;58.77;101132.88;5050909;28;20171;-70
2021/03/24 11:38:13;;;;;;;5.73;5.23;;;;;;;12.24;59.22;101122.53;5050227;28;20182;-70
2021/03/24 11:41:10;;;;;;;11.33;10.33;;;;;;;12.28;57.94;101126.28;5050884;28;20191;-71
2021/03/24 11:43:40;;;;;;;18.67;11.00;;;;;;;12.43;58.27;101125.94;5050740;28;20175;-70
2021/03/24 11:46:16;;;;;;;10.80;8.57;;;;;;;12.59;56.88;101133.88;5049043;28;20314;-70
2021/03/24 11:48:53;;;;;;;9.43;8.57;;;;;;;12.43;56.26;101119.66;5050806;28;20175;-72
2021/03/24 11:51:48;;;;;;;6.83;4.03;;;;;;;12.41;56.94;101127.38;5050746;28;20167;-70
2021/03/24 11:54:14;;;;;;;7.00;5.97;;;;;;;12.47;55.52;101121.50;5050778;28;20631;-72
2021/03/24 11:57:06;;;;;;;7.53;6.23;;;;;;;12.42;55.29;101121.59;5049967;28;20603;-70
2021/03/24 11:59:45;;;;;;;7.97;5.97;;;;;;;12.37;54.50;101115.41;5050676;28;20179;-69
2021/03/24 12:02:15;;;;;;;8.50;6.63;;;;;;;12.44;55.81;101108.41;5050540;28;20175;-70
2021/03/24 12:04:44;;;;;;;5.83;5.20;;;;;;;12.63;55.27;101107.47;5050635;28;20529;-70
2021/03/24 12:07:22;;;;;;;9.63;7.83;;;;;;;12.50;54.94;101104.44;5049952;28;20175;-69